This is the latest recevied weather packets stored in our database for station/object KF5WCW-1. If no packets are shown the sender has not sent any weather packets the latest 10 day(s).
| Time | Temp. | Humidity | Pressure | Rain* | Wind** | Luminosity | Snow |
|---|---|---|---|---|---|---|---|
| 1777497082 | 12.78° C | 31% | 0 hPa | 0 mm | - | - | - |
| 1777496782 | 11.67° C | 36% | 0 hPa | 0 mm | - | - | - |
| 1777496482 | 11.67° C | 33% | 0 hPa | 0 mm | - | - | - |
| 1777496182 | 11.11° C | 35% | 0 hPa | 0 mm | - | - | - |
| 1777495882 | 11.11° C | 36% | 0 hPa | 0 mm | - | - | - |
| 1777495582 | 10.56° C | 38% | 0 hPa | 0 mm | - | - | - |
| 1777495282 | 10° C | 38% | 0 hPa | 0 mm | - | - | - |
| 1777494982 | 8.89° C | 45% | 0 hPa | 0 mm | - | - | - |
| 1777494682 | 8.33° C | 47% | 0 hPa | 0 mm | - | - | - |
| 1777494382 | 8.89° C | 43% | 0 hPa | 0 mm | - | - | - |
| 1777494082 | 10° C | 39% | 0 hPa | 0 mm | - | - | - |
| 1777493782 | 10.56° C | 35% | 0 hPa | 0 mm | - | - | - |
| 1777493482 | 10° C | 35% | 0 hPa | 0 mm | - | - | - |
| 1777493182 | 10° C | 38% | 0 hPa | 0 mm | - | - | - |
| 1777492882 | 9.44° C | 40% | 0 hPa | 0 mm | - | - | - |
| 1777492582 | 9.44° C | 39% | 0 hPa | 0 mm | - | - | - |
| 1777492282 | 9.44° C | 42% | 0 hPa | 0 mm | - | - | - |
| 1777491982 | 8.89° C | 46% | 0 hPa | 0 mm | - | - | - |
| 1777491682 | 7.78° C | 54% | 0 hPa | 0 mm | - | - | - |
| 1777491382 | 7.78° C | 52% | 0 hPa | 0 mm | - | - | - |
| 1777491082 | 8.33° C | 47% | 0 hPa | 0 mm | - | - | - |
| 1777490782 | 7.78° C | 47% | 0 hPa | 0 mm | - | - | - |
| 1777490482 | 10° C | 46% | 0 hPa | 0 mm | - | - | - |
| 1777490182 | 10.56° C | 38% | 0 hPa | 0 mm | - | - | - |
| 1777489882 | 11.11° C | 34% | 0 hPa | 0 mm | - | - | - |
* Rain latest hour (hover to see other rain measurements)
** Current wind speed in m/s (hover to see current wind gust speed)